createdAt,value
2018-04-30T00:00:18.844Z,7.83
2018-04-30T00:01:21.027Z,6.10
2018-04-30T00:02:23.163Z,7.13
2018-04-30T00:03:24.584Z,4.10
2018-04-30T00:04:25.979Z,4.13
2018-04-30T00:05:27.421Z,6.70
2018-04-30T00:06:29.199Z,6.57
2018-04-30T00:07:30.961Z,4.97
2018-04-30T00:08:32.373Z,9.13
2018-04-30T00:09:34.214Z,5.20
2018-04-30T00:10:36.038Z,7.13
2018-04-30T00:11:37.461Z,7.00
2018-04-30T00:12:39.234Z,4.43
2018-04-30T00:13:42.381Z,8.73
2018-04-30T00:14:44.573Z,5.20
2018-04-30T00:15:46.021Z,5.53
2018-04-30T00:16:47.467Z,3.53
2018-04-30T00:17:48.909Z,5.27
2018-04-30T00:18:50.365Z,6.50
2018-04-30T00:19:52.264Z,4.67
2018-04-30T00:20:54.091Z,6.80
2018-04-30T00:21:56.288Z,6.07
2018-04-30T00:22:57.712Z,5.70
2018-04-30T00:23:59.509Z,4.10
2018-04-30T00:25:01.415Z,5.53
2018-04-30T00:26:02.917Z,4.77
2018-04-30T00:27:05.073Z,6.23
2018-04-30T00:28:07.201Z,5.47
2018-04-30T00:29:09.338Z,6.43
2018-04-30T00:30:10.828Z,4.03
2018-04-30T00:31:12.680Z,4.87
2018-04-30T00:32:14.123Z,4.87
2018-04-30T00:33:15.901Z,5.57
2018-04-30T00:34:17.295Z,7.27
2018-04-30T00:35:19.504Z,7.20
2018-04-30T00:36:20.937Z,7.60
2018-04-30T00:37:23.073Z,4.53
2018-04-30T00:38:25.223Z,5.20
2018-04-30T00:39:26.962Z,4.37
2018-04-30T00:40:28.364Z,5.13
2018-04-30T00:41:29.782Z,2.47
2018-04-30T00:42:31.947Z,5.37
2018-04-30T00:43:33.360Z,6.33
2018-04-30T00:44:35.501Z,5.53
2018-04-30T00:45:36.929Z,5.97
2018-04-30T00:46:38.423Z,4.33
2018-04-30T00:47:39.821Z,5.50
2018-04-30T00:48:41.275Z,4.03
2018-04-30T00:49:43.444Z,7.20
2018-04-30T00:50:45.249Z,6.30
2018-04-30T00:51:47.019Z,6.53
2018-04-30T00:52:48.788Z,5.73
2018-04-30T00:53:50.944Z,3.50
2018-04-30T00:54:59.148Z,4.47
2018-04-30T00:56:01.351Z,5.00
2018-04-30T00:57:02.799Z,5.00
2018-04-30T00:58:04.575Z,3.70
2018-04-30T00:59:06.339Z,8.87
2018-04-30T01:00:08.142Z,4.17
2018-04-30T01:01:09.592Z,8.03
2018-04-30T01:02:11.069Z,4.43
2018-04-30T01:03:13.248Z,6.70
2018-04-30T01:04:15.056Z,6.50
2018-04-30T01:05:17.222Z,6.90
2018-04-30T01:06:18.664Z,8.17
2018-04-30T01:07:20.125Z,5.10
2018-04-30T01:08:21.944Z,3.20
2018-04-30T01:09:23.317Z,5.73
2018-04-30T01:10:25.454Z,4.63
2018-04-30T01:11:26.901Z,5.93
2018-04-30T01:12:28.328Z,9.37
2018-04-30T01:13:29.758Z,6.10
2018-04-30T01:14:31.205Z,5.60
2018-04-30T01:15:32.614Z,5.43
2018-04-30T01:16:34.047Z,6.93
2018-04-30T01:17:36.221Z,3.53
2018-04-30T01:18:37.641Z,8.53
2018-04-30T01:19:39.435Z,5.77
2018-04-30T01:20:41.958Z,5.97
2018-04-30T01:21:43.431Z,6.77
2018-04-30T01:22:44.818Z,5.50
2018-04-30T01:23:46.585Z,7.07
2018-04-30T01:24:48.748Z,5.60
2018-04-30T01:25:50.189Z,6.30
2018-04-30T01:26:53.123Z,5.97
2018-04-30T01:27:54.557Z,6.97
2018-04-30T01:28:56.710Z,8.10
2018-04-30T01:29:58.200Z,5.33
2018-04-30T01:30:59.665Z,3.93
2018-04-30T01:32:01.095Z,4.90
2018-04-30T01:33:02.561Z,5.77
2018-04-30T01:34:04.047Z,7.70
2018-04-30T01:35:06.928Z,4.27
2018-04-30T01:36:08.381Z,5.23
2018-04-30T01:37:09.793Z,6.13
2018-04-30T01:38:11.953Z,5.20
2018-04-30T01:39:14.083Z,5.03
2018-04-30T01:40:15.529Z,5.27
2018-04-30T01:41:16.971Z,4.93
2018-04-30T01:42:19.126Z,6.57
2018-04-30T01:43:21.342Z,5.67
2018-04-30T01:44:22.767Z,8.17
2018-04-30T01:45:24.171Z,5.60
2018-04-30T01:46:25.574Z,4.43
2018-04-30T01:47:26.990Z,4.03
2018-04-30T01:48:29.187Z,7.97
2018-04-30T01:49:31.353Z,6.27
2018-04-30T01:50:32.800Z,3.40
2018-04-30T01:51:34.207Z,6.90
2018-04-30T01:52:35.608Z,4.37
2018-04-30T01:53:38.098Z,5.17
2018-04-30T01:54:39.902Z,5.67
2018-04-30T01:55:41.307Z,4.87
2018-04-30T01:56:42.797Z,4.67
2018-04-30T01:57:44.938Z,4.60
2018-04-30T01:58:47.123Z,6.10
2018-04-30T01:59:49.000Z,3.60
2018-04-30T02:00:50.433Z,6.60
2018-04-30T02:01:52.603Z,4.77
2018-04-30T02:02:54.796Z,4.07
2018-04-30T02:03:56.599Z,8.17
2018-04-30T02:04:58.725Z,4.03
2018-04-30T02:06:00.131Z,6.50
2018-04-30T02:07:01.979Z,5.27
2018-04-30T02:08:03.831Z,8.27
2018-04-30T02:09:05.321Z,4.90
2018-04-30T02:10:07.126Z,7.37
2018-04-30T02:11:08.533Z,5.53
2018-04-30T02:12:09.937Z,9.73
2018-04-30T02:13:12.107Z,6.93
2018-04-30T02:14:14.565Z,9.87
2018-04-30T02:15:16.711Z,5.33
2018-04-30T02:16:18.127Z,5.90
2018-04-30T02:17:19.533Z,5.43
2018-04-30T02:18:21.325Z,8.20
2018-04-30T02:19:22.732Z,6.43
2018-04-30T02:20:24.163Z,9.03
2018-04-30T02:21:25.574Z,8.27
2018-04-30T02:22:27.697Z,6.57
2018-04-30T02:23:29.086Z,7.33
2018-04-30T02:24:30.897Z,11.70
2018-04-30T02:25:32.711Z,8.53
2018-04-30T02:26:34.479Z,4.97
2018-04-30T02:27:35.919Z,4.80
2018-04-30T02:28:37.693Z,5.13
2018-04-30T02:29:39.094Z,7.63
2018-04-30T02:30:41.217Z,6.97
2018-04-30T02:31:42.989Z,5.90
2018-04-30T02:32:45.499Z,6.47
2018-04-30T02:33:48.397Z,8.03
2018-04-30T02:34:50.642Z,8.27
2018-04-30T02:35:52.769Z,10.23
2018-04-30T02:36:54.581Z,7.43
2018-04-30T02:37:55.961Z,5.93
2018-04-30T02:38:57.333Z,4.80
2018-04-30T02:39:59.911Z,4.70
2018-04-30T02:41:03.053Z,6.60
2018-04-30T02:42:05.248Z,3.87
2018-04-30T02:43:07.029Z,9.47
2018-04-30T02:44:08.468Z,4.33
2018-04-30T02:45:10.196Z,5.07
2018-04-30T02:46:13.111Z,6.37
2018-04-30T02:47:14.559Z,6.07
2018-04-30T02:48:17.081Z,7.33
2018-04-30T02:49:18.504Z,5.87
2018-04-30T02:50:52.000Z,6.27
2018-04-30T02:51:53.780Z,6.40
2018-04-30T02:52:55.425Z,6.30
2018-04-30T02:53:57.982Z,7.63
2018-04-30T02:54:59.783Z,7.03
2018-04-30T02:56:01.914Z,5.30
2018-04-30T02:57:04.084Z,6.13
2018-04-30T02:58:05.539Z,5.90
2018-04-30T02:59:06.881Z,6.90
2018-04-30T03:00:08.313Z,6.43
2018-04-30T03:01:10.112Z,4.33
2018-04-30T03:02:11.975Z,7.80
2018-04-30T03:03:14.134Z,8.73
2018-04-30T03:04:16.296Z,5.40
2018-04-30T03:05:17.706Z,6.17
2018-04-30T03:06:19.911Z,6.77
2018-04-30T03:07:22.081Z,5.23
2018-04-30T03:08:24.293Z,9.40
2018-04-30T03:09:25.791Z,5.50
2018-04-30T03:10:27.983Z,4.73
2018-04-30T03:11:30.188Z,7.60
2018-04-30T03:12:32.014Z,5.97
2018-04-30T03:13:33.979Z,6.23
2018-04-30T03:14:35.451Z,5.10
2018-04-30T03:15:37.291Z,6.97
2018-04-30T03:16:39.101Z,7.70
2018-04-30T03:17:40.564Z,4.63
2018-04-30T03:18:42.008Z,6.63
2018-04-30T03:19:43.467Z,6.17
2018-04-30T03:20:44.989Z,6.03
2018-04-30T03:21:46.493Z,5.47
2018-04-30T03:22:49.891Z,8.43
2018-04-30T03:23:52.136Z,8.03
2018-04-30T03:24:55.118Z,7.03
2018-04-30T03:25:56.997Z,8.57
2018-04-30T03:26:58.525Z,4.93
2018-04-30T03:28:00.093Z,4.60
2018-04-30T03:29:01.980Z,9.60
2018-04-30T03:30:03.925Z,5.57
2018-04-30T03:31:05.451Z,8.23
2018-04-30T03:32:07.301Z,7.60
2018-04-30T03:33:08.942Z,7.67
2018-04-30T03:34:10.473Z,6.03
2018-04-30T03:35:11.954Z,6.53
2018-04-30T03:36:13.455Z,4.07
2018-04-30T03:37:15.750Z,5.13
2018-04-30T03:38:17.603Z,6.70
2018-04-30T03:39:19.106Z,6.13
2018-04-30T03:40:20.639Z,6.83
2018-04-30T03:41:22.130Z,5.13
2018-04-30T03:42:23.641Z,9.87
2018-04-30T03:43:25.137Z,4.40
2018-04-30T03:44:27.366Z,6.43
2018-04-30T03:45:28.878Z,7.87
2018-04-30T03:46:30.387Z,8.17
2018-04-30T03:47:32.638Z,6.50
2018-04-30T03:48:34.864Z,5.70
2018-04-30T03:49:36.456Z,6.60
2018-04-30T03:50:37.912Z,4.37
2018-04-30T03:51:40.135Z,5.43
2018-04-30T03:52:42.017Z,7.73
2018-04-30T03:53:43.529Z,4.27
2018-04-30T03:54:45.798Z,4.60
2018-04-30T03:55:48.046Z,6.67
2018-04-30T03:56:49.565Z,5.77
2018-04-30T03:57:51.088Z,8.03
2018-04-30T03:58:53.449Z,5.67
2018-04-30T03:59:54.934Z,9.40
2018-04-30T04:01:15.094Z,6.97
2018-04-30T04:02:35.686Z,5.87
2018-04-30T04:03:55.869Z,6.47
2018-04-30T04:05:16.867Z,8.70
2018-04-30T04:06:36.848Z,5.77
2018-04-30T04:07:38.723Z,5.70
2018-04-30T04:08:40.599Z,6.67
2018-04-30T04:09:42.108Z,7.40
2018-04-30T04:10:43.615Z,7.20
2018-04-30T04:11:45.477Z,8.23
2018-04-30T04:12:47.061Z,7.13
2018-04-30T04:13:48.873Z,6.00
2018-04-30T04:14:50.497Z,7.10
2018-04-30T04:15:52.787Z,10.97
2018-04-30T04:16:54.307Z,7.97
2018-04-30T04:17:55.819Z,8.40
2018-04-30T04:18:57.291Z,7.13
2018-04-30T04:19:58.790Z,8.77
2018-04-30T04:21:02.007Z,6.47
2018-04-30T04:22:03.507Z,8.30
2018-04-30T04:23:05.729Z,6.70
2018-04-30T04:24:07.602Z,5.90
2018-04-30T04:25:09.493Z,6.27
2018-04-30T04:26:11.774Z,7.50
2018-04-30T04:27:13.253Z,5.23
2018-04-30T04:28:16.234Z,6.00
2018-04-30T04:29:18.480Z,7.57
2018-04-30T04:30:20.351Z,6.50
2018-04-30T04:31:22.574Z,9.17
2018-04-30T04:32:24.799Z,8.03
2018-04-30T04:33:27.041Z,5.90
2018-04-30T04:34:29.287Z,7.10
2018-04-30T04:35:31.296Z,6.03
2018-04-30T04:36:34.224Z,5.90
2018-04-30T04:37:36.462Z,7.47
2018-04-30T04:38:38.307Z,8.13
2018-04-30T04:39:39.844Z,7.33
2018-04-30T04:40:42.298Z,8.40
2018-04-30T04:41:44.203Z,5.93
2018-04-30T04:42:45.666Z,7.10
2018-04-30T04:43:47.518Z,5.13
2018-04-30T04:44:49.005Z,6.80
2018-04-30T04:45:51.032Z,5.27
2018-04-30T04:46:53.277Z,5.73
2018-04-30T04:47:55.654Z,7.47
2018-04-30T04:48:57.200Z,6.33
2018-04-30T04:49:59.453Z,7.83
2018-04-30T04:51:02.345Z,6.10
2018-04-30T04:52:04.214Z,6.50
2018-04-30T04:53:05.719Z,8.53
2018-04-30T04:54:07.198Z,5.50
2018-04-30T04:55:08.766Z,5.50
2018-04-30T04:56:11.099Z,7.53
2018-04-30T04:57:13.675Z,7.03
2018-04-30T04:58:15.535Z,4.90
2018-04-30T04:59:17.833Z,5.43
2018-04-30T05:00:19.342Z,6.67
2018-04-30T05:01:21.605Z,7.33
2018-04-30T05:02:23.495Z,6.20
2018-04-30T05:03:25.696Z,6.40
2018-04-30T05:04:28.882Z,7.43
2018-04-30T05:05:32.080Z,8.23
2018-04-30T05:06:35.299Z,8.80
2018-04-30T05:07:38.452Z,6.60
2018-04-30T05:08:41.631Z,8.53
2018-04-30T05:09:44.832Z,11.23
2018-04-30T05:10:48.087Z,9.47
2018-04-30T05:11:49.597Z,9.73
2018-04-30T05:12:52.806Z,6.87
2018-04-30T05:13:54.323Z,9.13
2018-04-30T05:14:57.508Z,8.27
2018-04-30T05:15:59.393Z,8.53
2018-04-30T05:17:02.600Z,6.67
2018-04-30T05:18:05.804Z,6.97
2018-04-30T05:19:07.646Z,6.00
2018-04-30T05:20:09.114Z,9.47
2018-04-30T05:21:10.634Z,6.77
2018-04-30T05:22:12.999Z,8.17
2018-04-30T05:23:14.560Z,8.97
2018-04-30T05:24:16.187Z,7.77
2018-04-30T05:25:18.144Z,9.90
2018-04-30T05:26:20.433Z,9.50
2018-04-30T05:27:22.335Z,6.70
2018-04-30T05:28:24.203Z,7.10
2018-04-30T05:29:26.411Z,8.30
2018-04-30T05:30:27.934Z,7.17
2018-04-30T05:31:31.110Z,7.87
2018-04-30T05:32:32.614Z,13.00
2018-04-30T05:33:35.799Z,9.17
2018-04-30T05:34:38.971Z,10.17
2018-04-30T05:35:42.153Z,6.33
2018-04-30T05:36:43.639Z,5.73
2018-04-30T05:37:46.888Z,7.07
2018-04-30T05:38:50.068Z,5.43
2018-04-30T05:39:53.279Z,6.93
2018-04-30T05:40:55.131Z,10.43
2018-04-30T05:41:57.740Z,8.83
2018-04-30T05:42:59.609Z,7.83
2018-04-30T05:44:01.173Z,9.43
2018-04-30T05:45:02.726Z,9.30
2018-04-30T05:46:04.368Z,4.90
2018-04-30T05:47:06.597Z,7.37
2018-04-30T05:48:09.052Z,8.50
2018-04-30T05:49:10.509Z,7.20
2018-04-30T05:50:12.005Z,5.30
2018-04-30T05:51:13.865Z,6.37
2018-04-30T05:52:16.111Z,7.73
2018-04-30T05:53:17.735Z,3.57
2018-04-30T05:54:19.255Z,10.40
2018-04-30T05:55:20.885Z,10.63
2018-04-30T05:56:22.338Z,7.63
2018-04-30T05:57:23.827Z,8.47
2018-04-30T05:58:26.099Z,6.47
2018-04-30T05:59:27.951Z,9.30
2018-04-30T06:00:29.466Z,9.07
2018-04-30T06:01:32.057Z,5.73
2018-04-30T06:02:33.926Z,8.47
2018-04-30T06:03:35.803Z,10.27
2018-04-30T06:04:38.056Z,11.93
2018-04-30T06:05:40.287Z,7.27
2018-04-30T06:06:41.853Z,9.20
2018-04-30T06:07:44.050Z,8.33
2018-04-30T06:08:45.554Z,6.47
2018-04-30T06:09:47.783Z,7.03
2018-04-30T06:10:49.253Z,5.80
2018-04-30T06:11:51.103Z,6.50
2018-04-30T06:12:53.332Z,8.90
2018-04-30T06:13:54.847Z,5.63
2018-04-30T06:14:57.830Z,6.47
2018-04-30T06:15:59.321Z,7.97
2018-04-30T06:17:01.540Z,11.47
2018-04-30T06:18:03.061Z,7.83
2018-04-30T06:19:05.694Z,7.23
2018-04-30T06:20:07.939Z,7.93
2018-04-30T06:21:09.799Z,6.97
2018-04-30T06:22:12.049Z,6.17
2018-04-30T06:23:13.953Z,11.93
2018-04-30T06:24:15.907Z,7.40
2018-04-30T06:25:17.779Z,8.57
2018-04-30T06:26:19.297Z,11.63
2018-04-30T06:27:21.557Z,7.60
2018-04-30T06:28:24.155Z,4.80
2018-04-30T06:29:25.774Z,8.23
2018-04-30T06:30:28.127Z,6.73
2018-04-30T06:31:29.655Z,10.37
2018-04-30T06:32:31.885Z,7.67
2018-04-30T06:33:34.863Z,5.50
2018-04-30T06:34:36.733Z,5.60
2018-04-30T06:35:38.987Z,6.77
2018-04-30T06:36:40.850Z,8.60
2018-04-30T06:37:42.833Z,2.97
2018-04-30T06:38:45.157Z,8.43
2018-04-30T06:39:47.053Z,5.93
2018-04-30T06:40:49.307Z,4.43
2018-04-30T06:41:51.937Z,8.17
2018-04-30T06:42:54.237Z,4.00
2018-04-30T06:43:56.493Z,5.20
2018-04-30T06:44:59.123Z,4.77
2018-04-30T06:46:01.382Z,5.70
2018-04-30T06:47:03.647Z,4.57
2018-04-30T06:48:05.498Z,4.10
2018-04-30T06:49:08.134Z,5.23
2018-04-30T06:50:10.051Z,5.07
2018-04-30T06:51:12.657Z,5.47
2018-04-30T06:52:14.541Z,3.70
2018-04-30T06:53:16.809Z,2.10
2018-04-30T06:54:18.300Z,2.73
2018-04-30T06:55:20.575Z,4.97
2018-04-30T06:56:22.055Z,3.50
2018-04-30T06:57:24.307Z,3.30
2018-04-30T06:58:26.952Z,5.90
2018-04-30T06:59:28.425Z,4.53
2018-04-30T07:00:29.969Z,5.97
2018-04-30T07:01:32.217Z,5.57
2018-04-30T07:02:34.455Z,2.80
2018-04-30T07:03:35.984Z,3.90
2018-04-30T07:04:37.887Z,1.63
2018-04-30T07:05:39.558Z,6.37
2018-04-30T07:06:41.781Z,3.20
2018-04-30T07:07:44.043Z,2.00
2018-04-30T07:08:47.254Z,4.53
2018-04-30T07:09:48.746Z,2.67
2018-04-30T07:10:50.289Z,2.03
2018-04-30T07:11:52.541Z,4.80
2018-04-30T07:12:54.063Z,4.00
2018-04-30T07:13:55.539Z,2.50
2018-04-30T07:14:57.025Z,2.67
2018-04-30T07:15:58.547Z,3.70
2018-04-30T07:17:00.109Z,3.27
2018-04-30T07:18:02.745Z,2.97
2018-04-30T07:19:05.040Z,4.70
2018-04-30T07:20:06.576Z,1.80
2018-04-30T07:21:08.102Z,8.30
2018-04-30T07:22:09.673Z,2.40
2018-04-30T07:23:11.918Z,1.27
2018-04-30T07:24:14.521Z,2.60
2018-04-30T07:25:16.036Z,3.47
2018-04-30T07:26:17.585Z,3.43
2018-04-30T07:27:19.476Z,2.50
2018-04-30T07:28:21.359Z,1.80
2018-04-30T07:29:22.873Z,1.63
2018-04-30T07:30:24.349Z,5.20
2018-04-30T07:31:25.893Z,3.13
2018-04-30T07:32:27.413Z,1.67
2018-04-30T07:33:29.659Z,1.47
2018-04-30T07:34:32.661Z,6.67
2018-04-30T07:35:34.894Z,2.93
2018-04-30T07:36:37.187Z,1.87
2018-04-30T07:37:38.695Z,2.17
2018-04-30T07:38:40.574Z,2.73
2018-04-30T07:39:42.877Z,4.60
2018-04-30T07:40:44.387Z,1.40
2018-04-30T07:41:45.884Z,1.57
2018-04-30T07:42:47.842Z,4.50
2018-04-30T07:43:49.337Z,1.70
2018-04-30T07:44:50.825Z,2.87
2018-04-30T07:45:52.703Z,4.93
2018-04-30T07:46:54.919Z,2.87
2018-04-30T07:47:56.780Z,1.57
2018-04-30T07:48:58.253Z,1.90
2018-04-30T07:50:00.479Z,3.03
2018-04-30T07:51:01.988Z,0.63
2018-04-30T07:52:03.535Z,1.43
2018-04-30T07:53:05.081Z,1.23
2018-04-30T07:54:06.571Z,2.33
2018-04-30T07:55:08.449Z,1.23
2018-04-30T07:56:10.677Z,4.00
2018-04-30T07:57:12.649Z,1.57
2018-04-30T07:58:14.467Z,2.40
2018-04-30T07:59:15.959Z,1.27
2018-04-30T08:00:17.474Z,2.27
2018-04-30T08:01:19.721Z,1.20
2018-04-30T08:02:22.710Z,4.53
2018-04-30T08:03:24.569Z,1.57
2018-04-30T08:04:26.429Z,4.47
2018-04-30T08:05:29.065Z,0.73
2018-04-30T08:06:30.588Z,1.67
2018-04-30T08:07:32.133Z,1.07
2018-04-30T08:08:33.631Z,1.70
2018-04-30T08:09:35.519Z,2.67
2018-04-30T08:10:37.013Z,2.77
2018-04-30T08:11:39.249Z,1.13
2018-04-30T08:12:41.877Z,3.13
2018-04-30T08:13:43.396Z,1.13
2018-04-30T08:14:44.972Z,1.50
2018-04-30T08:15:47.586Z,2.97
2018-04-30T08:16:49.463Z,0.60
2018-04-30T08:17:51.748Z,2.13
2018-04-30T08:18:53.631Z,2.20
2018-04-30T08:19:55.610Z,3.43
2018-04-30T08:20:57.815Z,4.40
2018-04-30T08:22:00.081Z,2.40
2018-04-30T08:23:01.966Z,1.13
2018-04-30T08:24:03.509Z,0.60
2018-04-30T08:25:05.035Z,2.20
2018-04-30T08:26:06.554Z,0.50
2018-04-30T08:27:08.428Z,2.63
2018-04-30T08:28:09.979Z,1.17
2018-04-30T08:29:11.820Z,0.60
2018-04-30T08:30:13.310Z,1.40
2018-04-30T08:31:14.883Z,1.20
2018-04-30T08:32:17.477Z,0.60
2018-04-30T08:33:19.007Z,2.10
2018-04-30T08:34:21.263Z,0.73
2018-04-30T08:35:22.781Z,1.17
2018-04-30T08:36:25.041Z,1.27
2018-04-30T08:37:26.941Z,1.40
2018-04-30T08:38:29.381Z,0.60
2018-04-30T08:39:31.630Z,3.20
2018-04-30T08:40:33.779Z,2.03
2018-04-30T08:41:35.302Z,2.23
2018-04-30T08:42:37.565Z,2.70
2018-04-30T08:43:39.548Z,0.93
2018-04-30T08:44:42.157Z,1.33
2018-04-30T08:45:43.658Z,1.50
2018-04-30T08:46:45.872Z,3.80
2018-04-30T08:47:48.098Z,2.07
2018-04-30T08:48:50.380Z,1.93
2018-04-30T08:49:51.869Z,1.80
2018-04-30T08:50:54.122Z,1.97
2018-04-30T08:51:55.634Z,6.00
2018-04-30T08:52:58.625Z,2.13
2018-04-30T08:54:00.817Z,1.47
2018-04-30T08:55:03.468Z,1.03
2018-04-30T08:56:04.979Z,1.57
2018-04-30T08:57:06.852Z,1.80
2018-04-30T08:58:10.063Z,2.43
2018-04-30T08:59:12.303Z,1.27
2018-04-30T09:00:13.845Z,2.77
2018-04-30T09:01:16.065Z,2.37
2018-04-30T09:02:17.587Z,1.53
2018-04-30T09:03:19.130Z,0.60
2018-04-30T09:04:21.068Z,2.30
2018-04-30T09:05:22.583Z,1.30
2018-04-30T09:06:24.090Z,0.60
2018-04-30T09:07:25.609Z,1.20
2018-04-30T09:08:27.113Z,2.67
2018-04-30T09:09:28.646Z,1.47
2018-04-30T09:10:30.922Z,1.10
2018-04-30T09:11:32.422Z,0.60
2018-04-30T09:12:33.920Z,1.50
2018-04-30T09:13:36.894Z,1.57
2018-04-30T09:14:38.788Z,1.43
2018-04-30T09:15:41.019Z,2.10
2018-04-30T09:16:42.511Z,0.73
2018-04-30T09:17:44.763Z,2.30
2018-04-30T09:18:47.012Z,1.47
2018-04-30T09:19:48.895Z,0.90
2018-04-30T09:20:52.103Z,1.50
2018-04-30T09:21:53.620Z,2.17
2018-04-30T09:22:55.122Z,2.83
2018-04-30T09:23:58.099Z,1.07
2018-04-30T09:24:59.647Z,0.77
2018-04-30T09:26:02.646Z,0.70
2018-04-30T09:27:04.950Z,1.07
2018-04-30T09:28:06.531Z,1.50
2018-04-30T09:29:08.054Z,0.80
2018-04-30T09:30:10.446Z,1.43
2018-04-30T09:31:11.910Z,1.17
2018-04-30T09:32:13.487Z,1.03
2018-04-30T09:33:15.459Z,1.73
2018-04-30T09:34:17.415Z,0.90
2018-04-30T09:35:19.325Z,2.13
2018-04-30T09:36:20.981Z,0.97
2018-04-30T09:37:22.519Z,1.33
2018-04-30T09:38:24.747Z,2.23
2018-04-30T09:39:27.047Z,0.70
2018-04-30T09:40:28.588Z,0.80
2018-04-30T09:41:30.116Z,0.77
2018-04-30T09:42:31.678Z,1.50
2018-04-30T09:43:33.916Z,1.07
2018-04-30T09:44:35.428Z,1.80
2018-04-30T09:45:37.700Z,0.80
2018-04-30T09:46:39.554Z,2.07
2018-04-30T09:47:42.060Z,0.87
2018-04-30T09:48:43.576Z,1.50
2018-04-30T09:49:45.074Z,1.93
2018-04-30T09:50:46.564Z,1.87
2018-04-30T09:51:48.435Z,4.00
2018-04-30T09:52:50.670Z,0.90
2018-04-30T09:53:52.182Z,2.27
2018-04-30T09:54:53.684Z,0.87
2018-04-30T09:55:55.222Z,1.30
2018-04-30T09:56:56.740Z,1.40
2018-04-30T09:57:58.247Z,1.13
2018-04-30T09:59:00.506Z,1.23
2018-04-30T10:00:02.842Z,1.23
2018-04-30T10:01:04.388Z,1.10
2018-04-30T10:02:06.621Z,1.40
2018-04-30T10:03:08.853Z,0.73
2018-04-30T10:04:11.114Z,1.53
2018-04-30T10:05:13.350Z,2.83
2018-04-30T10:06:14.862Z,0.70
2018-04-30T10:07:16.747Z,1.27
2018-04-30T10:08:18.649Z,2.30
2018-04-30T10:09:20.890Z,1.37
2018-04-30T10:10:22.383Z,1.30
2018-04-30T10:11:23.918Z,1.80
2018-04-30T10:12:26.265Z,1.33
2018-04-30T10:13:28.472Z,2.13
2018-04-30T10:14:30.347Z,1.03
2018-04-30T10:15:31.826Z,2.20
2018-04-30T10:16:33.742Z,0.90
2018-04-30T10:17:35.956Z,0.90
2018-04-30T10:18:37.465Z,2.47
2018-04-30T10:19:38.956Z,1.63
2018-04-30T10:20:41.226Z,0.80
2018-04-30T10:21:43.495Z,1.33
2018-04-30T10:22:44.986Z,0.80
2018-04-30T10:23:47.240Z,1.20
2018-04-30T10:24:49.137Z,1.00
2018-04-30T10:25:51.480Z,2.03
2018-04-30T10:26:53.296Z,1.07
2018-04-30T10:27:55.892Z,1.00
2018-04-30T10:28:57.390Z,2.47
2018-04-30T10:29:59.268Z,2.30
2018-04-30T10:31:00.908Z,0.70
2018-04-30T10:32:02.442Z,0.93
2018-04-30T10:33:03.956Z,1.00
2018-04-30T10:34:06.199Z,3.77
2018-04-30T10:35:08.505Z,1.00
2018-04-30T10:36:10.568Z,2.23
2018-04-30T10:37:12.077Z,0.90
2018-04-30T10:38:13.580Z,0.87
2018-04-30T10:39:15.088Z,0.93
2018-04-30T10:40:17.320Z,1.30
2018-04-30T10:41:19.586Z,0.97
2018-04-30T10:42:22.284Z,1.70
2018-04-30T10:43:23.780Z,3.23
2018-04-30T10:44:25.241Z,3.77
2018-04-30T10:45:26.745Z,2.93
2018-04-30T10:46:29.729Z,2.67
2018-04-30T10:47:32.268Z,1.40
2018-04-30T10:48:33.776Z,2.63
2018-04-30T10:49:35.262Z,1.30
2018-04-30T10:50:36.743Z,1.10
2018-04-30T10:51:38.997Z,1.47
2018-04-30T10:52:41.278Z,1.40
2018-04-30T10:53:42.810Z,2.60
2018-04-30T10:54:44.322Z,1.07
2018-04-30T10:55:46.583Z,2.03
2018-04-30T10:56:48.084Z,1.37
2018-04-30T10:57:49.621Z,1.33
2018-04-30T10:58:51.106Z,1.63
2018-04-30T10:59:52.590Z,3.20
2018-04-30T11:00:54.856Z,2.40
2018-04-30T11:01:56.355Z,1.60
2018-04-30T11:02:57.872Z,0.93
2018-04-30T11:04:00.106Z,2.57
2018-04-30T11:05:02.480Z,1.00
2018-04-30T11:06:04.005Z,1.33
2018-04-30T11:07:05.568Z,1.60
2018-04-30T11:08:07.088Z,2.90
2018-04-30T11:09:08.596Z,1.30
2018-04-30T11:10:11.589Z,2.40
2018-04-30T11:11:13.832Z,1.13
2018-04-30T11:12:15.348Z,1.30
2018-04-30T11:13:16.879Z,0.90
2018-04-30T11:14:18.368Z,1.97
2018-04-30T11:15:19.878Z,1.67
2018-04-30T11:16:22.112Z,1.93
2018-04-30T11:17:23.626Z,2.90
2018-04-30T11:18:26.511Z,1.53
2018-04-30T11:19:28.004Z,2.03
2018-04-30T11:20:30.232Z,1.30
2018-04-30T11:21:33.218Z,1.43
2018-04-30T11:22:35.469Z,1.30
2018-04-30T11:23:37.021Z,1.07
2018-04-30T11:24:38.518Z,2.93
2018-04-30T11:25:40.764Z,1.17
2018-04-30T11:26:42.984Z,1.83
2018-04-30T11:27:44.577Z,1.60
2018-04-30T11:28:46.806Z,2.20
2018-04-30T11:29:48.681Z,1.70
2018-04-30T11:30:51.667Z,1.23
2018-04-30T11:31:53.011Z,2.30
2018-04-30T11:32:55.628Z,1.87
2018-04-30T11:33:57.918Z,1.33
2018-04-30T11:35:00.239Z,1.73
2018-04-30T11:36:02.544Z,2.00
2018-04-30T11:37:04.522Z,2.03
2018-04-30T11:38:06.758Z,1.57
2018-04-30T11:39:09.016Z,1.30
2018-04-30T11:40:11.262Z,1.10
2018-04-30T11:41:12.774Z,1.37
2018-04-30T11:42:15.015Z,1.50
2018-04-30T11:43:17.410Z,1.47
2018-04-30T11:44:19.308Z,1.80
2018-04-30T11:45:21.537Z,3.40
2018-04-30T11:46:23.799Z,1.30
2018-04-30T11:47:25.733Z,1.37
2018-04-30T11:48:27.636Z,1.33
2018-04-30T11:49:30.653Z,3.90
2018-04-30T11:50:32.552Z,1.67
2018-04-30T11:51:34.422Z,1.73
2018-04-30T11:52:35.980Z,3.63
2018-04-30T11:53:38.367Z,2.43
2018-04-30T11:54:39.896Z,2.20
2018-04-30T11:55:42.924Z,1.40
2018-04-30T11:56:44.800Z,1.93
2018-04-30T11:57:47.802Z,2.33
2018-04-30T11:58:49.305Z,1.47
2018-04-30T11:59:51.637Z,5.70
2018-04-30T12:00:54.273Z,1.73
2018-04-30T12:01:56.191Z,1.80
2018-04-30T12:02:58.435Z,1.77
2018-04-30T12:04:00.766Z,1.37
2018-04-30T12:05:03.079Z,1.33
2018-04-30T12:06:04.583Z,1.20
2018-04-30T12:07:06.463Z,2.10
2018-04-30T12:08:08.736Z,3.47
2018-04-30T12:09:11.972Z,1.63
2018-04-30T12:10:15.200Z,2.77
2018-04-30T12:11:17.809Z,1.90
2018-04-30T12:12:21.093Z,1.53
2018-04-30T12:13:24.355Z,1.17
2018-04-30T12:14:27.537Z,1.13
2018-04-30T12:15:30.720Z,1.23
2018-04-30T12:16:33.931Z,3.10
2018-04-30T12:17:37.109Z,3.70
2018-04-30T12:18:38.661Z,1.40
2018-04-30T12:19:40.144Z,1.17
2018-04-30T12:21:53.101Z,2.90
2018-04-30T12:22:56.475Z,1.83
2018-04-30T12:23:59.730Z,1.20
2018-04-30T12:25:02.750Z,2.90
2018-04-30T12:26:06.261Z,3.07
2018-04-30T12:27:09.468Z,4.10
2018-04-30T12:28:12.687Z,2.47
2018-04-30T12:29:15.924Z,4.47
2018-04-30T12:30:17.449Z,1.50
2018-04-30T12:31:20.693Z,1.10
2018-04-30T12:32:23.894Z,3.23
2018-04-30T12:33:27.175Z,2.33
2018-04-30T12:34:30.331Z,1.70
2018-04-30T12:35:33.542Z,1.40
2018-04-30T12:36:36.743Z,1.90
2018-04-30T12:37:39.917Z,1.20
2018-04-30T12:38:43.096Z,1.40
2018-04-30T12:39:46.254Z,1.37
2018-04-30T12:40:47.754Z,2.00
2018-04-30T12:41:51.010Z,2.20
2018-04-30T12:42:54.237Z,2.57
2018-04-30T12:43:57.495Z,2.77
2018-04-30T12:45:00.685Z,1.50
2018-04-30T12:46:03.882Z,2.33
2018-04-30T12:47:07.098Z,1.40
2018-04-30T12:48:10.310Z,1.97
2018-04-30T12:49:13.490Z,1.67
2018-04-30T12:50:16.686Z,2.80
2018-04-30T12:51:19.875Z,1.63
2018-04-30T12:52:23.095Z,2.23
2018-04-30T12:53:24.592Z,3.70
2018-04-30T12:54:27.794Z,1.47
2018-04-30T12:55:30.991Z,1.77
2018-04-30T12:56:34.234Z,1.20
2018-04-30T12:57:37.455Z,2.47
2018-04-30T12:58:40.658Z,2.00
2018-04-30T12:59:43.842Z,3.80
2018-04-30T13:00:47.076Z,2.33
2018-04-30T13:01:50.296Z,1.27
2018-04-30T13:02:53.558Z,2.40
2018-04-30T13:03:56.752Z,5.30
2018-04-30T13:04:59.936Z,2.27
2018-04-30T13:06:03.134Z,2.83
2018-04-30T13:07:06.354Z,1.20
2018-04-30T13:08:09.585Z,1.73
2018-04-30T13:09:12.823Z,2.70
2018-04-30T13:10:16.010Z,1.40
2018-04-30T13:11:19.199Z,3.37
2018-04-30T13:12:22.416Z,1.60
2018-04-30T13:13:25.620Z,2.10
2018-04-30T13:14:28.801Z,2.30
2018-04-30T13:15:30.387Z,2.00
2018-04-30T13:16:33.542Z,1.57
2018-04-30T13:17:36.719Z,2.07
2018-04-30T13:18:39.966Z,1.57
2018-04-30T13:19:43.177Z,1.53
2018-04-30T13:20:46.366Z,1.00
2018-04-30T13:21:49.597Z,1.10
2018-04-30T13:22:52.797Z,2.63
2018-04-30T13:23:55.989Z,2.10
2018-04-30T13:24:58.254Z,2.63
2018-04-30T13:26:01.446Z,1.53
2018-04-30T13:27:04.650Z,1.37
2018-04-30T13:28:07.963Z,2.90
2018-04-30T13:29:11.174Z,3.00
2018-04-30T13:30:14.492Z,2.60
2018-04-30T13:31:17.665Z,3.37
2018-04-30T13:32:20.840Z,2.53
2018-04-30T13:33:24.022Z,1.73
2018-04-30T13:34:27.249Z,2.97
2018-04-30T13:35:30.439Z,2.30
2018-04-30T13:36:33.657Z,2.33
2018-04-30T13:37:36.847Z,1.77
2018-04-30T13:38:40.028Z,1.93
2018-04-30T13:39:43.255Z,1.20
2018-04-30T13:40:46.442Z,1.30
2018-04-30T13:41:49.629Z,8.97
2018-04-30T13:42:52.830Z,1.33
2018-04-30T13:43:54.322Z,1.70
2018-04-30T13:44:57.572Z,3.90
2018-04-30T13:46:00.826Z,2.40
2018-04-30T13:47:04.008Z,1.93
2018-04-30T13:48:07.198Z,1.20